Time;durP1;ratioP1;P1;durP2;ratioP2;P2;SDS_P1;SDS_P2;PMS_P1;PMS_P2;Temp;Humidity;BMP_temperature;BMP_pressure;BME280_temperature;BME280_humidity;BME280_pressure;Samples;Min_cycle;Max_cycle;Signal;HPM_P1;HPM_P2
2021/03/03 00:01:58;;;;;;;330.55;294.85;;;;;;;;;;5055711;28;20033;-70
2021/03/03 00:04:25;;;;;;;340.85;304.42;;;;;;;;;;5060709;28;20032;-70
2021/03/03 00:06:51;;;;;;;334.00;297.65;;;;;;;;;;5054824;28;20060;-69
2021/03/03 00:09:17;;;;;;;339.40;303.30;;;;;;;;;;5054901;28;20063;-69
2021/03/03 00:11:43;;;;;;;316.40;273.83;;;;;;;;;;5062256;28;20500;-69
2021/03/03 00:14:10;;;;;;;366.95;329.80;;;;;;;;;;5061182;28;20086;-70
2021/03/03 00:16:36;;;;;;;366.38;329.20;;;;;;;;;;5054960;28;20028;-70
2021/03/03 00:19:02;;;;;;;326.00;289.58;;;;;;;;;;5058516;28;20027;-70
2021/03/03 00:21:28;;;;;;;365.23;327.92;;;;;;;;;;5055493;28;20374;-70
2021/03/03 00:23:54;;;;;;;337.70;301.42;;;;;;;;;;5062767;28;20028;-70
2021/03/03 00:26:20;;;;;;;368.55;331.17;;;;;;;;;;5057661;28;20830;-70
2021/03/03 00:28:46;;;;;;;362.38;325.27;;;;;;;;;;5058261;28;20489;-70
2021/03/03 00:31:13;;;;;;;373.48;335.58;;;;;;;;;;5054982;28;20053;-70
2021/03/03 00:33:39;;;;;;;371.00;333.83;;;;;;;;;;5059232;28;20040;-70
2021/03/03 00:36:05;;;;;;;333.52;297.73;;;;;;;;;;5054910;28;20611;-70
2021/03/03 00:38:31;;;;;;;398.23;359.73;;;;;;;;;;5054592;28;20032;-70
2021/03/03 00:40:57;;;;;;;352.75;316.15;;;;;;;;;;5054235;28;20496;-70
2021/03/03 00:43:23;;;;;;;358.52;321.52;;;;;;;;;;5054279;28;20388;-70
2021/03/03 00:45:49;;;;;;;405.27;366.63;;;;;;;;;;5055259;28;20036;-70
2021/03/03 00:48:15;;;;;;;376.52;338.92;;;;;;;;;;5054363;28;20060;-70
2021/03/03 00:50:41;;;;;;;385.73;347.73;;;;;;;;;;5056520;28;20033;-70
2021/03/03 00:53:10;;;;;;;324.55;288.95;;;;;;;;;;5059588;28;20039;-70
2021/03/03 00:55:37;;;;;;;340.92;304.42;;;;;;;;;;5056162;28;20043;-70
2021/03/03 00:58:03;;;;;;;357.17;319.97;;;;;;;;;;5053993;28;20080;-70
2021/03/03 01:00:29;;;;;;;422.63;382.73;;;;;;;;;;5058497;28;20303;-70
2021/03/03 01:02:55;;;;;;;375.55;338.05;;;;;;;;;;5056915;28;20076;-70
2021/03/03 01:05:21;;;;;;;342.65;306.10;;;;;;;;;;5054062;28;20102;-70
2021/03/03 01:07:48;;;;;;;338.02;301.38;;;;;;;;;;5052094;28;20037;-70
2021/03/03 01:10:14;;;;;;;367.95;330.55;;;;;;;;;;5057552;28;20546;-70
2021/03/03 01:12:40;;;;;;;385.47;347.63;;;;;;;;;;5065034;28;20035;-70
2021/03/03 01:15:06;;;;;;;335.50;299.35;;;;;;;;;;5054611;28;20071;-70
2021/03/03 01:17:34;;;;;;;330.63;294.80;;;;;;;;;;5053342;28;20103;-70
2021/03/03 01:19:59;;;;;;;348.83;312.02;;;;;;;;;;5062319;28;20032;-70
2021/03/03 01:22:25;;;;;;;333.17;297.52;;;;;;;;;;5063309;28;20503;-70
2021/03/03 01:24:51;;;;;;;343.48;307.10;;;;;;;;;;5055392;28;20080;-69
2021/03/03 01:27:18;;;;;;;340.50;304.23;;;;;;;;;;5053278;28;20029;-70
2021/03/03 01:29:44;;;;;;;338.38;302.08;;;;;;;;;;5053976;28;20076;-70
2021/03/03 01:32:10;;;;;;;334.63;297.65;;;;;;;;;;5064672;28;20020;-69
2021/03/03 01:34:36;;;;;;;326.35;286.33;;;;;;;;;;5054502;28;20093;-69
2021/03/03 01:37:02;;;;;;;338.77;302.75;;;;;;;;;;5061378;28;20039;-69
2021/03/03 01:39:28;;;;;;;366.80;329.40;;;;;;;;;;5053253;28;20063;-70
2021/03/03 01:41:54;;;;;;;312.80;270.23;;;;;;;;;;5053210;28;20688;-70
2021/03/03 01:44:21;;;;;;;362.58;325.42;;;;;;;;;;5057146;28;20033;-69
2021/03/03 01:46:47;;;;;;;314.52;272.40;;;;;;;;;;5054365;28;20107;-69
2021/03/03 01:49:14;;;;;;;350.00;313.40;;;;;;;;;;5065217;28;20033;-69
2021/03/03 01:51:40;;;;;;;336.15;300.17;;;;;;;;;;5054159;28;20078;-70
2021/03/03 01:54:06;;;;;;;310.60;256.92;;;;;;;;;;5056460;28;20393;-69
2021/03/03 01:56:33;;;;;;;339.17;303.45;;;;;;;;;;5058276;28;20025;-69
2021/03/03 01:58:59;;;;;;;324.90;287.60;;;;;;;;;;5055318;28;20035;-70
2021/03/03 02:01:25;;;;;;;349.52;312.83;;;;;;;;;;5059725;28;20111;-70
2021/03/03 02:03:51;;;;;;;349.48;312.92;;;;;;;;;;5053968;28;20489;-70
2021/03/03 02:06:26;;;;;;;326.50;287.38;;;;;;;;;;5051761;28;20135;-70
2021/03/03 02:09:12;;;;;;;319.63;279.85;;;;;;;;;;5061459;28;20159;-70
2021/03/03 02:11:41;;;;;;;321.13;286.05;;;;;;;;;;5052893;28;20044;-70
2021/03/03 02:14:09;;;;;;;366.40;328.98;;;;;;;;;;5052986;28;20071;-69
2021/03/03 02:16:37;;;;;;;361.98;325.00;;;;;;;;;;5052039;28;20428;-69
2021/03/03 02:19:04;;;;;;;345.60;309.30;;;;;;;;;;5052716;28;20040;-70
2021/03/03 02:21:33;;;;;;;350.30;313.92;;;;;;;;;;5052860;28;20031;-69
2021/03/03 02:23:58;;;;;;;357.85;320.95;;;;;;;;;;5060445;28;20024;-69
2021/03/03 02:26:33;;;;;;;317.00;277.67;;;;;;;;;;5056074;28;20523;-69
2021/03/03 02:28:59;;;;;;;375.42;337.92;;;;;;;;;;5059044;28;20495;-69
2021/03/03 02:31:25;;;;;;;341.13;304.65;;;;;;;;;;5051164;28;20024;-69
2021/03/03 02:33:51;;;;;;;387.00;348.88;;;;;;;;;;5067522;28;20074;-69
2021/03/03 02:36:18;;;;;;;396.08;357.15;;;;;;;;;;5062816;28;20029;-70
2021/03/03 02:38:44;;;;;;;341.45;305.20;;;;;;;;;;5059389;28;20039;-69
2021/03/03 02:41:11;;;;;;;379.92;342.17;;;;;;;;;;5052184;28;20033;-69
2021/03/03 02:43:37;;;;;;;393.23;354.57;;;;;;;;;;5057757;28;20052;-69
2021/03/03 02:46:05;;;;;;;379.17;341.25;;;;;;;;;;5058428;28;20309;-69
2021/03/03 02:48:31;;;;;;;309.02;260.80;;;;;;;;;;5054531;28;20055;-69
2021/03/03 02:50:57;;;;;;;361.08;324.00;;;;;;;;;;5052837;28;20029;-70
2021/03/03 02:53:23;;;;;;;373.52;335.92;;;;;;;;;;5058448;28;20438;-69
2021/03/03 02:55:49;;;;;;;350.75;314.05;;;;;;;;;;5059793;28;20081;-70
2021/03/03 02:58:15;;;;;;;370.65;333.00;;;;;;;;;;5056892;28;20155;-69
2021/03/03 03:00:42;;;;;;;346.50;310.42;;;;;;;;;;5056024;28;20037;-70
2021/03/03 03:03:23;;;;;;;387.58;349.48;;;;;;;;;;5065152;28;20493;-70
2021/03/03 03:05:53;;;;;;;341.55;305.50;;;;;;;;;;5059732;28;20123;-69
2021/03/03 03:08:21;;;;;;;378.17;340.60;;;;;;;;;;5054956;28;20025;-70
2021/03/03 03:10:48;;;;;;;424.80;385.42;;;;;;;;;;5051829;28;20029;-69
2021/03/03 03:13:15;;;;;;;373.65;336.35;;;;;;;;;;5064337;28;20033;-69
2021/03/03 03:15:41;;;;;;;382.88;345.23;;;;;;;;;;5050929;28;20021;-69
2021/03/03 03:18:18;;;;;;;366.23;329.00;;;;;;;;;;5055016;28;20121;-69
2021/03/03 03:20:45;;;;;;;370.70;333.23;;;;;;;;;;5054207;28;20028;-69
2021/03/03 03:23:12;;;;;;;321.15;285.40;;;;;;;;;;5063900;28;20052;-70
2021/03/03 03:25:40;;;;;;;329.83;294.25;;;;;;;;;;5052600;28;20053;-70
2021/03/03 03:28:06;;;;;;;;;;;;;;;;;;5064533;28;20029;-69
2021/03/03 03:30:32;;;;;;;336.20;300.27;;;;;;;;;;5063177;28;20375;-69
2021/03/03 03:32:59;;;;;;;330.55;294.85;;;;;;;;;;5055277;28;20040;-70
2021/03/03 03:35:28;;;;;;;359.20;322.30;;;;;;;;;;5051466;28;20027;-69
2021/03/03 03:37:55;;;;;;;365.73;328.25;;;;;;;;;;5062731;28;20032;-70
2021/03/03 03:40:22;;;;;;;370.23;332.92;;;;;;;;;;5051978;28;20027;-69
2021/03/03 03:42:49;;;;;;;329.70;294.33;;;;;;;;;;5051691;28;20033;-69
2021/03/03 03:45:15;;;;;;;374.95;337.65;;;;;;;;;;5051845;28;20299;-69
2021/03/03 03:47:43;;;;;;;355.40;318.58;;;;;;;;;;5063920;28;20021;-70
2021/03/03 03:50:09;;;;;;;305.80;259.10;;;;;;;;;;5051383;28;20037;-69
2021/03/03 03:52:35;;;;;;;362.03;325.00;;;;;;;;;;5054606;28;20544;-69
2021/03/03 03:55:02;;;;;;;312.17;265.67;;;;;;;;;;5054031;28;20068;-69
2021/03/03 03:57:36;;;;;;;373.98;336.63;;;;;;;;;;5062122;28;20052;-70
2021/03/03 04:00:04;;;;;;;341.27;305.05;;;;;;;;;;5052371;28;20477;-70
2021/03/03 04:02:30;;;;;;;342.40;306.25;;;;;;;;;;5061157;28;20028;-69
2021/03/03 04:04:56;;;;;;;345.17;308.77;;;;;;;;;;5052372;28;20477;-70
2021/03/03 04:07:22;;;;;;;327.20;291.90;;;;;;;;;;5065744;28;20070;-70
2021/03/03 04:09:48;;;;;;;327.92;292.42;;;;;;;;;;5057737;28;20052;-69
2021/03/03 04:12:14;;;;;;;321.23;284.30;;;;;;;;;;5055125;28;20029;-70
2021/03/03 04:14:40;;;;;;;368.30;331.33;;;;;;;;;;5063389;28;20032;-70
2021/03/03 04:17:06;;;;;;;318.05;282.65;;;;;;;;;;5061976;28;20035;-69
2021/03/03 04:19:32;;;;;;;368.52;331.20;;;;;;;;;;5059862;28;20107;-70
2021/03/03 04:21:58;;;;;;;303.25;243.52;;;;;;;;;;5051973;28;20037;-69
2021/03/03 04:24:24;;;;;;;380.67;342.95;;;;;;;;;;5055139;28;20072;-69
2021/03/03 04:26:50;;;;;;;370.88;333.55;;;;;;;;;;5054156;28;20419;-70
2021/03/03 04:29:16;;;;;;;369.63;332.55;;;;;;;;;;5055522;28;20051;-70
2021/03/03 04:31:42;;;;;;;396.48;358.27;;;;;;;;;;5064352;28;20029;-70
2021/03/03 04:34:08;;;;;;;393.88;355.55;;;;;;;;;;5055180;28;20029;-69
2021/03/03 04:36:34;;;;;;;361.48;324.65;;;;;;;;;;5059123;28;20060;-69
2021/03/03 04:39:00;;;;;;;349.08;312.55;;;;;;;;;;5054842;28;20033;-69
2021/03/03 04:41:26;;;;;;;425.65;386.33;;;;;;;;;;5058434;28;20503;-69
2021/03/03 04:43:52;;;;;;;347.70;311.52;;;;;;;;;;5054627;28;20095;-69
2021/03/03 04:46:18;;;;;;;375.33;337.67;;;;;;;;;;5054818;28;20055;-70
2021/03/03 04:48:44;;;;;;;383.90;346.00;;;;;;;;;;5065799;28;20029;-69
2021/03/03 04:51:10;;;;;;;330.35;294.50;;;;;;;;;;5053677;28;20025;-70
2021/03/03 04:53:36;;;;;;;370.42;333.35;;;;;;;;;;5058101;28;20052;-69
2021/03/03 04:56:02;;;;;;;404.05;365.50;;;;;;;;;;5059466;28;20849;-69
2021/03/03 04:58:28;;;;;;;316.35;278.73;;;;;;;;;;5058060;28;20021;-69
2021/03/03 05:00:54;;;;;;;326.25;290.90;;;;;;;;;;5054786;28;20548;-69
2021/03/03 05:03:20;;;;;;;350.55;314.38;;;;;;;;;;5053661;28;20028;-70
2021/03/03 05:05:46;;;;;;;317.90;279.52;;;;;;;;;;5058743;28;20041;-70
2021/03/03 05:08:12;;;;;;;316.98;281.23;;;;;;;;;;5057468;28;20036;-70
2021/03/03 05:10:39;;;;;;;435.45;395.27;;;;;;;;;;5052970;28;20028;-70
2021/03/03 05:13:05;;;;;;;346.75;310.40;;;;;;;;;;5053396;28;20035;-70
2021/03/03 05:15:31;;;;;;;360.00;322.98;;;;;;;;;;5061247;28;20021;-70
2021/03/03 05:17:57;;;;;;;376.48;339.02;;;;;;;;;;5065706;28;20543;-70
2021/03/03 05:20:23;;;;;;;320.88;283.55;;;;;;;;;;5055651;28;20477;-69
2021/03/03 05:22:49;;;;;;;366.92;329.98;;;;;;;;;;5053153;28;20037;-70
2021/03/03 05:25:15;;;;;;;355.98;318.83;;;;;;;;;;5062453;28;20048;-69
2021/03/03 05:27:41;;;;;;;398.60;360.33;;;;;;;;;;5054099;28;20115;-69
2021/03/03 05:30:07;;;;;;;384.08;346.15;;;;;;;;;;5059955;28;20044;-69
2021/03/03 05:32:33;;;;;;;404.85;366.38;;;;;;;;;;5071181;28;20028;-69
2021/03/03 05:34:59;;;;;;;359.27;322.30;;;;;;;;;;5054071;28;20029;-69
2021/03/03 05:37:25;;;;;;;397.83;359.58;;;;;;;;;;5054377;28;20080;-69
2021/03/03 05:39:51;;;;;;;373.25;336.00;;;;;;;;;;5061637;28;20029;-69
2021/03/03 05:42:17;;;;;;;347.58;311.23;;;;;;;;;;5051311;28;20142;-70
2021/03/03 05:44:47;;;;;;;364.02;327.27;;;;;;;;;;5053649;28;20040;-69
2021/03/03 05:47:15;;;;;;;355.27;318.50;;;;;;;;;;5052754;28;20021;-69
2021/03/03 05:49:43;;;;;;;406.15;367.35;;;;;;;;;;5054456;28;20025;-70
2021/03/03 05:52:11;;;;;;;372.17;335.05;;;;;;;;;;5056157;28;20044;-70
2021/03/03 05:54:37;;;;;;;319.25;282.55;;;;;;;;;;5053137;28;20044;-70
2021/03/03 05:57:04;;;;;;;346.40;310.30;;;;;;;;;;5052821;28;20021;-69
2021/03/03 05:59:30;;;;;;;318.75;283.65;;;;;;;;;;5054534;28;20424;-69
2021/03/03 06:01:56;;;;;;;343.65;307.83;;;;;;;;;;5056109;28;20024;-69
2021/03/03 06:04:22;;;;;;;339.00;302.73;;;;;;;;;;5052065;28;20037;-70
2021/03/03 06:06:48;;;;;;;325.55;289.90;;;;;;;;;;5051027;28;20040;-69
2021/03/03 06:09:14;;;;;;;366.50;329.40;;;;;;;;;;5062510;28;20508;-69
2021/03/03 06:11:41;;;;;;;353.88;317.25;;;;;;;;;;5061228;28;20496;-69
2021/03/03 06:14:07;;;;;;;316.77;280.52;;;;;;;;;;5062493;28;20116;-69
2021/03/03 06:16:33;;;;;;;338.38;302.58;;;;;;;;;;5054957;28;20799;-70
2021/03/03 06:18:59;;;;;;;329.15;293.40;;;;;;;;;;5054357;28;20033;-69
2021/03/03 06:21:26;;;;;;;337.40;301.73;;;;;;;;;;5061356;28;20052;-68
2021/03/03 06:24:09;;;;;;;346.48;310.60;;;;;;;;;;5063529;28;20091;-68
2021/03/03 06:26:36;;;;;;;344.08;308.23;;;;;;;;;;5064076;28;20053;-69
2021/03/03 06:29:13;;;;;;;393.77;356.30;;;;;;;;;;5055544;28;20379;-69
2021/03/03 06:31:39;;;;;;;;;;;;;;;;;;5056419;28;20108;-69
2021/03/03 06:34:18;;;;;;;357.58;321.55;;;;;;;;;;5061217;28;19909;-69
2021/03/03 06:36:46;;;;;;;359.58;323.05;;;;;;;;;;5057533;28;20078;-69
2021/03/03 06:39:19;;;;;;;367.13;330.33;;;;;;;;;;5062675;28;20033;-69
2021/03/03 06:41:45;;;;;;;409.83;371.42;;;;;;;;;;5053035;28;20108;-69
2021/03/03 06:44:12;;;;;;;360.23;323.33;;;;;;;;;;5063071;28;20587;-69
2021/03/03 06:46:38;;;;;;;390.17;352.58;;;;;;;;;;5065778;28;20491;-69
2021/03/03 06:49:04;;;;;;;377.55;340.60;;;;;;;;;;5060217;28;20056;-69
2021/03/03 06:51:31;;;;;;;367.17;330.52;;;;;;;;;;5053166;28;20025;-69
2021/03/03 06:54:01;;;;;;;323.23;287.80;;;;;;;;;;5052258;28;20025;-69
2021/03/03 06:56:34;;;;;;;363.05;326.13;;;;;;;;;;5051124;28;20031;-69
2021/03/03 06:59:14;;;;;;;346.05;309.88;;;;;;;;;;5054449;28;20021;-68
2021/03/03 07:01:40;;;;;;;338.83;302.80;;;;;;;;;;5053284;28;20025;-69
2021/03/03 07:04:22;;;;;;;316.98;278.45;;;;;;;;;;5051904;28;20078;-69
2021/03/03 07:06:49;;;;;;;321.63;286.75;;;;;;;;;;5056061;28;20559;-70
2021/03/03 07:09:15;;;;;;;332.10;296.05;;;;;;;;;;5061586;28;20061;-69
2021/03/03 07:11:42;;;;;;;328.15;292.50;;;;;;;;;;5055523;28;20522;-70
2021/03/03 07:14:21;;;;;;;348.88;312.48;;;;;;;;;;5067265;28;20112;-69
2021/03/03 07:17:00;;;;;;;364.13;327.02;;;;;;;;;;5064878;28;20060;-70
2021/03/03 07:19:26;;;;;;;354.73;318.35;;;;;;;;;;5055405;28;20393;-69
2021/03/03 07:21:52;;;;;;;397.23;358.83;;;;;;;;;;5060737;28;20048;-70
2021/03/03 07:24:19;;;;;;;382.05;344.23;;;;;;;;;;5053471;28;20025;-69
2021/03/03 07:26:46;;;;;;;355.75;318.98;;;;;;;;;;5054297;28;20357;-70
2021/03/03 07:29:12;;;;;;;357.63;320.67;;;;;;;;;;5053862;28;20040;-69
2021/03/03 07:31:39;;;;;;;388.63;350.73;;;;;;;;;;5051329;28;20060;-69
2021/03/03 07:34:07;;;;;;;352.83;315.92;;;;;;;;;;5053179;28;20060;-69
2021/03/03 07:36:32;;;;;;;;;;;;;;;;;;5058121;28;20032;-69
2021/03/03 07:38:59;;;;;;;373.75;336.33;;;;;;;;;;5060097;28;19909;-69
2021/03/03 07:41:27;;;;;;;367.55;330.30;;;;;;;;;;5056479;28;20033;-69
2021/03/03 07:43:54;;;;;;;342.50;306.05;;;;;;;;;;5055470;28;20025;-69
2021/03/03 07:46:20;;;;;;;;;;;;;;;;;;5058552;28;20738;-69
2021/03/03 07:48:49;;;;;;;321.10;285.73;;;;;;;;;;5055146;28;19919;-69
2021/03/03 07:51:16;;;;;;;346.30;309.52;;;;;;;;;;5055543;28;20032;-70
2021/03/03 07:53:43;;;;;;;385.70;347.58;;;;;;;;;;5060196;28;20580;-68
2021/03/03 07:56:09;;;;;;;369.20;331.63;;;;;;;;;;5066170;28;20036;-69
2021/03/03 07:58:36;;;;;;;386.75;348.98;;;;;;;;;;5058683;28;21335;-69
2021/03/03 08:01:03;;;;;;;372.25;334.88;;;;;;;;;;5058380;28;20025;-69
2021/03/03 08:03:46;;;;;;;332.33;296.23;;;;;;;;;;5058829;28;20485;-69
2021/03/03 08:06:20;;;;;;;416.55;376.92;;;;;;;;;;5055210;28;20044;-69
2021/03/03 08:09:08;;;;;;;382.35;344.45;;;;;;;;;;5057852;28;20036;-69
2021/03/03 08:11:34;;;;;;;377.67;340.33;;;;;;;;;;5063657;28;20108;-70
2021/03/03 08:14:01;;;;;;;362.00;325.20;;;;;;;;;;5064151;28;20060;-69
2021/03/03 08:16:28;;;;;;;360.38;323.10;;;;;;;;;;5066378;28;20025;-70
2021/03/03 08:18:56;;;;;;;426.52;387.02;;;;;;;;;;5063795;28;20016;-69
2021/03/03 08:21:25;;;;;;;377.48;339.85;;;;;;;;;;5067398;28;20353;-69
2021/03/03 08:23:54;;;;;;;364.73;326.98;;;;;;;;;;5058925;28;20025;-69
2021/03/03 08:26:20;;;;;;;342.08;305.80;;;;;;;;;;5060660;28;20835;-69
2021/03/03 08:28:47;;;;;;;370.67;333.73;;;;;;;;;;5054339;28;20052;-69
2021/03/03 08:31:17;;;;;;;370.02;332.70;;;;;;;;;;5057795;28;20029;-69
2021/03/03 08:33:54;;;;;;;311.27;256.85;;;;;;;;;;5062597;28;20021;-70
2021/03/03 08:36:25;;;;;;;362.40;325.40;;;;;;;;;;5054528;28;20036;-69
2021/03/03 08:38:54;;;;;;;370.10;333.02;;;;;;;;;;5054693;28;20114;-69
2021/03/03 08:41:20;;;;;;;363.15;325.83;;;;;;;;;;5054477;28;20714;-69
2021/03/03 08:43:47;;;;;;;391.70;353.35;;;;;;;;;;5052705;28;20128;-69
2021/03/03 08:46:19;;;;;;;356.67;319.63;;;;;;;;;;5054231;28;20114;-69
2021/03/03 08:48:46;;;;;;;365.63;328.65;;;;;;;;;;5054150;28;20029;-69
2021/03/03 08:51:22;;;;;;;338.70;302.35;;;;;;;;;;5063420;28;20029;-69
2021/03/03 08:53:50;;;;;;;411.98;372.55;;;;;;;;;;5061524;28;20481;-70
2021/03/03 08:56:16;;;;;;;;;;;;;;;;;;5053441;28;20615;-69
2021/03/03 08:58:48;;;;;;;356.48;319.55;;;;;;;;;;5054513;28;19987;-69
2021/03/03 09:01:14;;;;;;;389.70;351.30;;;;;;;;;;5058566;28;20032;-69
2021/03/03 09:03:40;;;;;;;339.83;303.85;;;;;;;;;;5058979;28;20432;-69
2021/03/03 09:06:07;;;;;;;344.35;307.70;;;;;;;;;;5066768;28;20388;-69
2021/03/03 09:08:33;;;;;;;401.23;362.13;;;;;;;;;;5068873;28;20467;-70
2021/03/03 09:10:59;;;;;;;371.08;333.42;;;;;;;;;;5063184;28;20035;-69
2021/03/03 09:13:26;;;;;;;368.75;331.27;;;;;;;;;;5059647;28;20485;-69
2021/03/03 09:16:04;;;;;;;427.20;387.42;;;;;;;;;;5063791;28;20025;-69
2021/03/03 09:18:30;;;;;;;334.77;298.80;;;;;;;;;;5061603;28;20036;-69
2021/03/03 09:21:06;;;;;;;350.85;314.25;;;;;;;;;;5061230;28;20030;-70
2021/03/03 09:23:32;;;;;;;357.65;320.45;;;;;;;;;;5044562;28;20032;-69
2021/03/03 09:25:58;;;;;;;330.00;294.47;;;;;;;;;;5055342;28;20048;-69
2021/03/03 09:28:40;;;;;;;305.73;269.45;;;;;;;;;;5059017;28;20017;-69
2021/03/03 09:31:06;;;;;;;351.00;313.88;;;;;;;;;;5059640;28;20028;-69
2021/03/03 09:33:33;;;;;;;316.48;280.27;;;;;;;;;;5065683;28;20099;-69
2021/03/03 09:35:59;;;;;;;341.35;305.48;;;;;;;;;;5061270;28;20028;-69
2021/03/03 09:38:26;;;;;;;337.38;301.20;;;;;;;;;;5059314;28;20037;-68
2021/03/03 09:40:52;;;;;;;322.35;282.95;;;;;;;;;;5061657;28;20025;-69
2021/03/03 09:43:19;;;;;;;345.20;308.90;;;;;;;;;;5064413;28;20025;-68
2021/03/03 09:45:45;;;;;;;311.60;264.00;;;;;;;;;;5059233;28;20396;-69
2021/03/03 09:48:11;;;;;;;395.15;356.67;;;;;;;;;;5061576;28;20134;-69
2021/03/03 09:50:37;;;;;;;378.45;340.35;;;;;;;;;;5057018;28;20524;-69
2021/03/03 09:53:03;;;;;;;313.70;270.58;;;;;;;;;;5066094;28;20094;-69
2021/03/03 09:55:32;;;;;;;299.30;229.73;;;;;;;;;;5066506;28;20229;-68
2021/03/03 09:57:59;;;;;;;341.80;305.67;;;;;;;;;;5066597;28;20103;-69
2021/03/03 10:00:25;;;;;;;;;;;;;;;;;;5072355;28;20033;-69
2021/03/03 10:02:52;;;;;;;322.00;281.13;;;;;;;;;;5051821;28;19915;-68
2021/03/03 10:05:37;;;;;;;331.92;295.08;;;;;;;;;;5059867;28;20032;-69
2021/03/03 10:08:07;;;;;;;315.20;265.33;;;;;;;;;;5064163;28;20546;-68
2021/03/03 10:10:34;;;;;;;319.33;278.30;;;;;;;;;;5061102;28;20036;-68
2021/03/03 10:13:00;;;;;;;305.45;239.63;;;;;;;;;;5057248;28;20029;-69
2021/03/03 10:15:38;;;;;;;313.88;245.77;;;;;;;;;;5069967;28;20056;-68
2021/03/03 10:18:08;;;;;;;361.00;323.60;;;;;;;;;;5054058;28;20388;-68
2021/03/03 10:20:34;;;;;;;309.23;250.95;;;;;;;;;;5057381;28;20469;-69
2021/03/03 10:23:07;;;;;;;321.58;275.65;;;;;;;;;;5050634;28;20067;-69
2021/03/03 10:25:44;;;;;;;352.58;315.40;;;;;;;;;;5051264;28;20041;-69
2021/03/03 10:28:20;;;;;;;316.98;262.98;;;;;;;;;;5061138;28;20025;-70
2021/03/03 10:30:48;;;;;;;316.93;256.03;;;;;;;;;;5065342;28;20496;-69
2021/03/03 10:33:14;;;;;;;;;;;;;;;;;;5062194;28;20287;-69
2021/03/03 10:35:47;;;;;;;342.42;305.60;;;;;;;;;;5059683;28;20011;-69
2021/03/03 10:38:14;;;;;;;322.83;279.45;;;;;;;;;;5053972;28;20025;-70
2021/03/03 10:40:40;;;;;;;;;;;;;;;;;;5052732;28;20029;-70
2021/03/03 10:43:10;;;;;;;352.08;314.90;;;;;;;;;;5051022;28;19951;-70
2021/03/03 10:45:36;;;;;;;325.05;282.48;;;;;;;;;;5051594;28;20037;-70
2021/03/03 10:48:02;;;;;;;349.50;312.33;;;;;;;;;;5053587;28;20028;-70
2021/03/03 10:50:29;;;;;;;331.13;292.33;;;;;;;;;;5061842;28;20033;-70
2021/03/03 10:52:56;;;;;;;330.63;290.95;;;;;;;;;;5055295;28;20147;-70
2021/03/03 10:55:23;;;;;;;320.05;266.42;;;;;;;;;;5052115;28;20029;-70
2021/03/03 10:58:06;;;;;;;320.08;267.33;;;;;;;;;;5062240;28;20219;-71
2021/03/03 11:00:51;;;;;;;340.02;303.05;;;;;;;;;;5052483;28;20036;-70
2021/03/03 11:03:17;;;;;;;322.95;278.45;;;;;;;;;;5064693;28;20028;-70
2021/03/03 11:05:43;;;;;;;304.33;232.32;;;;;;;;;;5069443;28;20036;-70
2021/03/03 11:08:09;;;;;;;314.35;258.98;;;;;;;;;;5051454;28;20029;-70
2021/03/03 11:10:35;;;;;;;308.08;255.38;;;;;;;;;;5052224;28;20025;-70
2021/03/03 11:13:01;;;;;;;315.17;267.17;;;;;;;;;;5050623;28;20036;-70
2021/03/03 11:15:27;;;;;;;316.52;261.75;;;;;;;;;;5052738;28;20504;-70
2021/03/03 11:17:53;;;;;;;309.65;247.07;;;;;;;;;;5059695;28;20024;-71
2021/03/03 11:20:19;;;;;;;324.90;284.55;;;;;;;;;;5060161;28;20040;-72
2021/03/03 11:22:45;;;;;;;367.35;325.52;;;;;;;;;;5044219;28;20037;-73
2021/03/03 11:25:11;;;;;;;313.83;248.40;;;;;;;;;;5051874;28;20448;-72
2021/03/03 11:27:37;;;;;;;308.67;251.93;;;;;;;;;;5051821;28;20469;-72
2021/03/03 11:30:04;;;;;;;301.75;237.75;;;;;;;;;;5053892;28;20483;-72
2021/03/03 11:32:30;;;;;;;296.33;220.40;;;;;;;;;;5062350;28;20029;-73
2021/03/03 11:34:56;;;;;;;299.15;222.52;;;;;;;;;;5053838;28;20473;-72
2021/03/03 11:37:22;;;;;;;298.90;228.95;;;;;;;;;;5052400;28;20037;-72
2021/03/03 11:39:51;;;;;;;298.30;226.98;;;;;;;;;;5057070;28;20023;-72
2021/03/03 11:42:17;;;;;;;312.73;252.40;;;;;;;;;;5064289;28;20033;-72
2021/03/03 11:44:43;;;;;;;300.63;227.13;;;;;;;;;;5051615;28;20429;-72
2021/03/03 11:47:09;;;;;;;290.15;203.00;;;;;;;;;;5050719;28;20036;-73
2021/03/03 11:49:35;;;;;;;316.17;266.23;;;;;;;;;;5058328;28;20488;-74
2021/03/03 11:52:01;;;;;;;289.98;208.70;;;;;;;;;;5057232;28;20487;-73
2021/03/03 11:54:27;;;;;;;281.02;178.90;;;;;;;;;;5054910;28;20068;-73
2021/03/03 11:56:53;;;;;;;306.48;244.63;;;;;;;;;;5058010;28;20071;-73
2021/03/03 11:59:20;;;;;;;290.85;212.40;;;;;;;;;;5059218;28;20029;-72
2021/03/03 12:01:48;;;;;;;285.00;195.02;;;;;;;;;;5059885;28;20025;-73
2021/03/03 12:04:14;;;;;;;305.73;229.27;;;;;;;;;;5058072;28;20428;-73
2021/03/03 12:06:40;;;;;;;297.75;208.55;;;;;;;;;;5060086;28;20070;-72
2021/03/03 12:09:06;;;;;;;304.83;249.93;;;;;;;;;;5061163;28;20024;-72
2021/03/03 12:11:32;;;;;;;282.63;184.75;;;;;;;;;;5053728;28;20029;-73
2021/03/03 12:13:58;;;;;;;309.33;256.95;;;;;;;;;;5063723;28;20111;-73
2021/03/03 12:16:24;;;;;;;285.52;197.95;;;;;;;;;;5051948;28;20147;-73
2021/03/03 12:18:50;;;;;;;305.83;237.60;;;;;;;;;;5061689;28;20052;-73
2021/03/03 12:21:16;;;;;;;288.35;199.02;;;;;;;;;;5061739;28;20078;-72
2021/03/03 12:23:42;;;;;;;296.58;218.50;;;;;;;;;;5052648;28;20029;-73
2021/03/03 12:26:08;;;;;;;289.83;195.45;;;;;;;;;;5054382;28;20048;-73
2021/03/03 12:28:36;;;;;;;285.95;195.77;;;;;;;;;;5058267;28;20495;-73
2021/03/03 12:31:02;;;;;;;295.83;209.07;;;;;;;;;;5057718;28;20041;-72
2021/03/03 12:33:28;;;;;;;285.05;175.73;;;;;;;;;;5054479;28;20017;-73
2021/03/03 12:35:54;;;;;;;277.50;160.02;;;;;;;;;;5055657;28;20028;-73
2021/03/03 12:38:20;;;;;;;281.95;180.50;;;;;;;;;;5056787;28;20050;-73
2021/03/03 12:40:46;;;;;;;269.80;146.20;;;;;;;;;;5060075;28;20500;-72
2021/03/03 12:43:12;;;;;;;283.92;183.95;;;;;;;;;;5058513;28;20112;-73
2021/03/03 12:45:38;;;;;;;291.20;198.23;;;;;;;;;;5060993;28;20037;-72
2021/03/03 12:48:04;;;;;;;293.05;194.88;;;;;;;;;;5064276;28;20044;-72
2021/03/03 12:50:31;;;;;;;281.13;172.20;;;;;;;;;;5065374;28;20104;-72
2021/03/03 12:52:57;;;;;;;289.70;192.17;;;;;;;;;;5062731;28;20143;-73
2021/03/03 12:55:23;;;;;;;280.10;168.63;;;;;;;;;;5063803;28;20283;-72
2021/03/03 12:57:49;;;;;;;282.95;165.85;;;;;;;;;;5060376;28;20561;-73
2021/03/03 13:00:16;;;;;;;283.35;180.18;;;;;;;;;;5053391;28;20098;-72
2021/03/03 13:02:47;;;;;;;273.92;161.18;;;;;;;;;;5053934;28;20401;-72
2021/03/03 13:05:13;;;;;;;280.73;171.63;;;;;;;;;;5057623;28;20486;-73
2021/03/03 13:07:39;;;;;;;291.10;200.13;;;;;;;;;;5054574;28;20040;-72
2021/03/03 13:10:05;;;;;;;286.85;187.18;;;;;;;;;;5059282;28;20037;-72
2021/03/03 13:12:31;;;;;;;277.90;170.02;;;;;;;;;;5066147;28;20024;-72
2021/03/03 13:14:57;;;;;;;282.58;180.27;;;;;;;;;;5071540;28;20101;-73
2021/03/03 13:17:23;;;;;;;302.63;202.88;;;;;;;;;;5067092;28;20469;-72
2021/03/03 13:19:49;;;;;;;276.23;156.52;;;;;;;;;;5061046;28;20537;-73
2021/03/03 13:22:15;;;;;;;290.13;192.75;;;;;;;;;;5058902;28;20090;-73
2021/03/03 13:24:41;;;;;;;273.55;155.80;;;;;;;;;;5053529;28;20041;-73
2021/03/03 13:27:07;;;;;;;289.38;187.80;;;;;;;;;;5055141;28;20033;-71
2021/03/03 13:29:34;;;;;;;278.38;173.45;;;;;;;;;;5062800;28;20024;-72
2021/03/03 13:32:00;;;;;;;268.83;150.00;;;;;;;;;;5054003;28;20107;-73
2021/03/03 13:34:27;;;;;;;273.17;155.60;;;;;;;;;;5047622;28;20485;-72
2021/03/03 13:36:53;;;;;;;289.35;198.77;;;;;;;;;;5062152;28;20057;-72
2021/03/03 13:39:19;;;;;;;284.55;178.77;;;;;;;;;;5060925;28;20033;-73
2021/03/03 13:41:46;;;;;;;277.63;166.05;;;;;;;;;;5053248;28;20040;-73
2021/03/03 13:44:12;;;;;;;279.27;171.50;;;;;;;;;;5058480;28;20504;-73
2021/03/03 13:46:39;;;;;;;282.63;170.35;;;;;;;;;;5059464;28;20083;-73
2021/03/03 13:49:05;;;;;;;287.27;195.88;;;;;;;;;;5056208;28;20078;-73
2021/03/03 13:51:31;;;;;;;281.25;176.57;;;;;;;;;;5061740;28;20400;-73
2021/03/03 13:53:57;;;;;;;285.02;185.30;;;;;;;;;;5056472;28;20030;-73
2021/03/03 13:56:23;;;;;;;292.60;208.73;;;;;;;;;;5055518;28;20147;-73
2021/03/03 13:58:49;;;;;;;269.25;148.82;;;;;;;;;;5053913;28;20033;-73